createdAt,value
2023-02-16T00:00:51.014Z,76.41
2023-02-16T00:03:22.619Z,76.52
2023-02-16T00:05:52.772Z,77.08
2023-02-16T00:08:25.778Z,76.94
2023-02-16T00:11:14.229Z,77.05
2023-02-16T00:13:52.390Z,76.89
2023-02-16T00:16:23.848Z,77.05
2023-02-16T00:18:54.112Z,77.11
2023-02-16T00:21:23.859Z,77.23
2023-02-16T00:26:36.938Z,77.39
2023-02-16T00:29:07.664Z,77.09
2023-02-16T00:31:37.526Z,76.67
2023-02-16T00:34:27.926Z,76.94
2023-02-16T00:36:58.200Z,76.77
2023-02-16T00:39:28.296Z,77.09
2023-02-16T00:42:00.597Z,77.25
2023-02-16T00:44:37.969Z,77.82
2023-02-16T00:47:20.753Z,77.87
2023-02-16T00:49:51.132Z,77.80
2023-02-16T00:55:17.149Z,78.74
2023-02-16T00:57:54.726Z,78.82
2023-02-16T01:00:30.340Z,78.18
2023-02-16T01:03:04.753Z,78.27
2023-02-16T01:05:44.056Z,78.58
2023-02-16T01:08:33.212Z,79.16
2023-02-16T01:11:10.463Z,79.07
2023-02-16T01:13:47.304Z,79.21
2023-02-16T01:16:22.812Z,80.42
2023-02-16T01:18:58.240Z,80.66
2023-02-16T01:21:28.802Z,80.89
2023-02-16T01:23:57.986Z,81.03
2023-02-16T01:26:34.239Z,80.98
2023-02-16T01:29:03.441Z,80.67
2023-02-16T01:31:34.781Z,81.18
2023-02-16T01:34:05.254Z,81.46
2023-02-16T01:36:38.720Z,82.11
2023-02-16T01:39:10.583Z,82.30
2023-02-16T01:41:52.534Z,83.04
2023-02-16T01:44:27.267Z,83.61
2023-02-16T01:47:13.174Z,82.56
2023-02-16T01:49:42.327Z,83.10
2023-02-16T01:55:10.853Z,83.14
2023-02-16T01:57:45.773Z,83.07
2023-02-16T02:00:28.342Z,82.92
2023-02-16T02:03:22.238Z,83.41
2023-02-16T02:11:24.026Z,83.00
2023-02-16T02:14:04.830Z,82.66
2023-02-16T02:16:34.397Z,83.20
2023-02-16T02:19:06.158Z,83.28
2023-02-16T02:22:09.658Z,83.21
2023-02-16T02:25:24.917Z,83.24
2023-02-16T02:28:02.561Z,82.58
2023-02-16T02:30:49.573Z,82.66
2023-02-16T02:33:34.019Z,82.57
2023-02-16T02:36:14.846Z,82.37
2023-02-16T02:38:54.736Z,82.16
2023-02-16T02:41:50.535Z,82.40
2023-02-16T02:44:24.335Z,82.57
2023-02-16T02:46:53.768Z,82.43
2023-02-16T02:49:23.586Z,82.29
2023-02-16T02:51:53.670Z,82.59
2023-02-16T02:54:39.171Z,82.29
2023-02-16T02:57:28.895Z,82.22
2023-02-16T03:00:16.571Z,82.56
2023-02-16T03:02:55.893Z,83.03
2023-02-16T03:05:26.691Z,82.91
2023-02-16T03:08:05.948Z,83.30
2023-02-16T03:10:52.589Z,82.50
2023-02-16T03:13:26.181Z,82.66
2023-02-16T03:16:00.373Z,83.09
2023-02-16T03:18:44.260Z,82.96
2023-02-16T03:21:29.200Z,83.34
2023-02-16T03:24:15.189Z,83.21
2023-02-16T03:26:57.986Z,83.88
2023-02-16T03:29:28.562Z,83.73
2023-02-16T03:32:00.742Z,84.09
2023-02-16T03:34:32.551Z,83.87
2023-02-16T03:37:02.453Z,84.12
2023-02-16T03:39:53.831Z,83.30
2023-02-16T03:42:26.118Z,83.32
2023-02-16T03:45:02.724Z,83.36
2023-02-16T03:47:35.189Z,83.42
2023-02-16T03:50:04.508Z,83.54
2023-02-16T03:52:33.677Z,83.46
2023-02-16T03:55:02.917Z,83.16
2023-02-16T03:57:32.652Z,82.99
2023-02-16T04:00:02.329Z,83.36
2023-02-16T04:02:40.607Z,83.72
2023-02-16T04:05:10.279Z,83.99
2023-02-16T04:07:39.384Z,84.53
2023-02-16T04:12:42.439Z,84.01
2023-02-16T04:15:13.478Z,84.44
2023-02-16T04:17:49.969Z,84.57
2023-02-16T04:20:21.213Z,84.74
2023-02-16T04:22:51.854Z,84.50
2023-02-16T04:25:21.442Z,83.62
2023-02-16T04:27:52.088Z,84.24
2023-02-16T04:30:23.091Z,85.30
2023-02-16T04:32:54.422Z,85.26
2023-02-16T04:35:24.401Z,85.41
2023-02-16T04:37:53.549Z,85.91
2023-02-16T04:40:23.019Z,85.41
2023-02-16T04:42:52.137Z,85.89
2023-02-16T04:45:21.362Z,85.86
2023-02-16T04:47:50.974Z,85.53
2023-02-16T04:50:22.479Z,86.07
2023-02-16T04:52:51.732Z,85.87
2023-02-16T04:55:21.097Z,86.92
2023-02-16T04:57:55.348Z,87.29
2023-02-16T05:00:24.766Z,86.87
2023-02-16T05:02:54.010Z,85.84
2023-02-16T05:05:25.264Z,86.09
2023-02-16T05:07:54.643Z,87.21
2023-02-16T05:10:23.855Z,86.43
2023-02-16T05:13:06.068Z,87.61
2023-02-16T05:15:36.325Z,87.05
2023-02-16T05:18:05.845Z,88.29
2023-02-16T05:20:50.047Z,88.24
2023-02-16T05:23:19.286Z,88.23
2023-02-16T05:25:48.822Z,87.33
2023-02-16T05:28:18.340Z,88.39
2023-02-16T05:30:47.592Z,88.35
2023-02-16T05:33:21.974Z,87.62
2023-02-16T05:35:53.092Z,87.91
2023-02-16T05:41:00.583Z,86.77
2023-02-16T05:43:29.936Z,87.36
2023-02-16T05:45:59.659Z,86.95
2023-02-16T05:48:28.901Z,87.75
2023-02-16T05:51:05.252Z,87.57
2023-02-16T05:53:34.894Z,87.68
2023-02-16T05:56:05.894Z,86.60
2023-02-16T05:58:36.578Z,87.08
2023-02-16T06:01:06.431Z,86.78
2023-02-16T06:03:36.246Z,86.98
2023-02-16T06:06:11.948Z,86.85
2023-02-16T06:08:41.362Z,86.95
2023-02-16T06:11:31.056Z,86.83
2023-02-16T06:14:02.597Z,86.12
2023-02-16T06:16:33.816Z,85.21
2023-02-16T06:19:03.633Z,85.78
2023-02-16T06:21:35.510Z,84.83
2023-02-16T06:24:05.091Z,83.98
2023-02-16T06:26:34.271Z,84.08
2023-02-16T06:29:03.955Z,84.66
2023-02-16T06:31:36.085Z,84.29
2023-02-16T06:34:06.288Z,83.83
2023-02-16T06:36:38.443Z,84.15
2023-02-16T06:39:13.767Z,84.02
2023-02-16T06:41:42.987Z,83.60
2023-02-16T06:44:14.224Z,83.56
2023-02-16T06:46:44.261Z,85.58
2023-02-16T06:49:14.669Z,85.47
2023-02-16T06:51:46.572Z,85.33
2023-02-16T06:54:18.159Z,84.75
2023-02-16T06:56:47.276Z,84.40
2023-02-16T06:59:16.648Z,84.31
2023-02-16T07:01:46.528Z,83.55
2023-02-16T07:04:24.756Z,82.50
2023-02-16T07:06:56.535Z,82.36
2023-02-16T07:09:25.955Z,83.35
2023-02-16T07:11:55.013Z,82.93
2023-02-16T07:14:32.258Z,82.83
2023-02-16T07:17:03.895Z,82.18
2023-02-16T07:19:33.862Z,82.00
2023-02-16T07:22:06.992Z,82.11
2023-02-16T07:24:36.342Z,81.86
2023-02-16T07:27:05.594Z,81.22
2023-02-16T07:29:46.261Z,80.45
2023-02-16T07:32:15.551Z,80.24
2023-02-16T07:34:47.639Z,79.42
2023-02-16T07:37:19.170Z,79.17
2023-02-16T07:39:53.492Z,79.22
2023-02-16T07:42:23.036Z,78.25
2023-02-16T07:44:59.171Z,77.08
2023-02-16T07:47:28.432Z,76.99
2023-02-16T07:50:02.756Z,77.48
2023-02-16T07:52:39.137Z,77.41
2023-02-16T07:55:13.809Z,76.30
2023-02-16T07:57:42.867Z,76.79
2023-02-16T08:00:13.504Z,76.55
2023-02-16T08:02:43.340Z,76.42
2023-02-16T08:05:12.624Z,75.74
2023-02-16T08:07:48.815Z,75.63
2023-02-16T08:10:18.361Z,75.55
2023-02-16T08:12:49.314Z,75.71
2023-02-16T08:15:19.493Z,75.41
2023-02-16T08:17:49.000Z,75.75
2023-02-16T08:20:18.283Z,74.41
2023-02-16T08:22:49.521Z,74.75
2023-02-16T08:25:19.251Z,75.19
2023-02-16T08:27:51.852Z,75.08
2023-02-16T08:30:26.798Z,75.18
2023-02-16T08:33:00.526Z,75.38
2023-02-16T08:35:34.843Z,74.61
2023-02-16T08:38:08.731Z,73.29
2023-02-16T08:40:54.948Z,72.43
2023-02-16T08:43:24.071Z,73.37
2023-02-16T08:45:53.521Z,72.98
2023-02-16T08:48:22.928Z,73.70
2023-02-16T08:50:55.049Z,73.71
2023-02-16T08:53:27.631Z,73.75
2023-02-16T08:55:57.499Z,73.78
2023-02-16T08:58:27.130Z,73.02
2023-02-16T09:00:56.832Z,73.44
2023-02-16T09:03:26.614Z,73.44
2023-02-16T09:06:03.776Z,73.54
2023-02-16T09:08:37.049Z,74.06
2023-02-16T09:11:15.615Z,73.74
2023-02-16T09:13:46.383Z,72.26
2023-02-16T09:16:18.398Z,72.33
2023-02-16T09:18:48.176Z,72.83
2023-02-16T09:21:25.568Z,72.92
2023-02-16T09:23:58.209Z,72.68
2023-02-16T09:26:36.724Z,72.49
2023-02-16T09:29:05.450Z,72.37
2023-02-16T09:31:36.881Z,71.91
2023-02-16T09:34:08.448Z,72.14
2023-02-16T09:36:39.666Z,70.94
2023-02-16T09:39:14.737Z,70.99
2023-02-16T09:41:59.039Z,70.65
2023-02-16T09:44:37.577Z,70.20
2023-02-16T09:47:19.767Z,69.49
2023-02-16T09:49:56.573Z,69.86
2023-02-16T09:52:32.850Z,70.11
2023-02-16T09:55:08.493Z,70.26
2023-02-16T10:00:50.534Z,70.17
2023-02-16T10:03:45.181Z,70.35
2023-02-16T10:06:35.172Z,70.15
2023-02-16T10:09:13.693Z,70.44
2023-02-16T10:11:52.718Z,69.93
2023-02-16T10:14:32.172Z,68.93
2023-02-16T10:17:17.931Z,68.66
2023-02-16T10:19:51.757Z,68.55
2023-02-16T10:22:29.805Z,67.62
2023-02-16T10:25:03.857Z,67.89
2023-02-16T10:27:41.664Z,67.98
2023-02-16T10:30:19.180Z,68.57
2023-02-16T10:33:03.168Z,69.01
2023-02-16T10:35:45.497Z,69.12
2023-02-16T10:38:27.055Z,68.77
2023-02-16T10:41:06.035Z,67.72
2023-02-16T10:43:51.399Z,67.41
2023-02-16T10:46:25.418Z,65.84
2023-02-16T10:48:56.424Z,65.75
2023-02-16T10:51:28.859Z,65.76
2023-02-16T10:54:06.766Z,64.56
2023-02-16T10:56:49.030Z,64.46
2023-02-16T10:59:28.384Z,64.57
2023-02-16T11:02:01.092Z,64.03
2023-02-16T11:04:41.052Z,62.49
2023-02-16T11:09:52.597Z,62.16
2023-02-16T11:12:29.646Z,62.16
2023-02-16T11:15:05.718Z,61.82
2023-02-16T11:17:52.150Z,61.93
2023-02-16T11:20:35.854Z,61.95
2023-02-16T11:23:25.864Z,62.10
2023-02-16T11:26:03.818Z,62.54
2023-02-16T11:28:35.782Z,62.44
2023-02-16T11:31:16.744Z,62.10
2023-02-16T11:33:57.989Z,61.79
2023-02-16T11:36:32.796Z,62.47
2023-02-16T11:39:06.474Z,62.23
2023-02-16T11:41:37.443Z,62.69
2023-02-16T11:44:07.324Z,62.54
2023-02-16T11:46:48.094Z,62.20
2023-02-16T11:49:34.426Z,60.97
2023-02-16T11:52:19.349Z,60.68
2023-02-16T11:54:51.074Z,60.44
2023-02-16T11:57:37.116Z,60.47
2023-02-16T12:00:17.802Z,59.79
2023-02-16T12:03:18.917Z,60.51
2023-02-16T12:06:04.036Z,61.04
2023-02-16T12:08:57.770Z,60.99
2023-02-16T12:11:35.327Z,61.16
2023-02-16T12:14:28.502Z,61.77
2023-02-16T12:17:05.020Z,62.01
2023-02-16T12:19:42.973Z,62.40
2023-02-16T12:22:26.102Z,62.81
2023-02-16T12:25:27.277Z,62.64
2023-02-16T12:28:05.041Z,63.04
2023-02-16T12:30:41.586Z,62.76
2023-02-16T12:33:29.137Z,63.17
2023-02-16T12:36:34.408Z,63.62
2023-02-16T12:39:13.029Z,62.21
2023-02-16T12:41:59.412Z,62.00
2023-02-16T12:44:37.013Z,62.24
2023-02-16T12:53:34.272Z,61.62
2023-02-16T12:56:10.091Z,63.01
2023-02-16T12:58:44.871Z,63.17
2023-02-16T13:01:18.371Z,63.62
2023-02-16T13:03:54.720Z,63.93
2023-02-16T13:06:37.018Z,63.26
2023-02-16T13:09:27.016Z,63.83
2023-02-16T13:12:02.386Z,63.50
2023-02-16T13:14:46.927Z,63.78
2023-02-16T13:17:20.749Z,63.69
2023-02-16T13:19:55.523Z,65.03
2023-02-16T13:22:49.340Z,65.02
2023-02-16T13:25:39.220Z,65.51
2023-02-16T13:28:31.003Z,65.36
2023-02-16T13:31:18.731Z,64.42
2023-02-16T13:34:20.191Z,64.45
2023-02-16T13:37:18.701Z,63.85
2023-02-16T13:40:14.243Z,63.27
2023-02-16T13:43:01.799Z,63.66
2023-02-16T13:45:34.302Z,63.93
2023-02-16T13:48:08.788Z,65.15
2023-02-16T13:50:38.025Z,66.23
2023-02-16T13:53:20.643Z,66.68
2023-02-16T13:55:52.313Z,67.16
2023-02-16T13:58:35.723Z,66.71
2023-02-16T14:01:36.220Z,66.87
2023-02-16T14:04:06.524Z,66.98
2023-02-16T14:06:39.555Z,66.47
2023-02-16T14:09:35.273Z,66.60
2023-02-16T14:12:22.784Z,66.45
2023-02-16T14:15:07.163Z,66.58
2023-02-16T14:17:38.071Z,68.19
2023-02-16T14:20:34.298Z,68.74
2023-02-16T14:23:04.698Z,70.43
2023-02-16T14:25:43.555Z,70.16
2023-02-16T14:28:42.483Z,70.93
2023-02-16T14:31:27.548Z,71.38
2023-02-16T14:34:06.056Z,72.09
2023-02-16T14:36:36.012Z,72.67
2023-02-16T14:39:05.245Z,73.51
2023-02-16T14:41:43.672Z,73.36
2023-02-16T14:44:39.544Z,73.10
2023-02-16T14:47:26.747Z,73.60
2023-02-16T14:50:35.879Z,74.12
2023-02-16T14:53:35.559Z,75.76
2023-02-16T14:56:28.456Z,75.04
2023-02-16T14:59:02.875Z,74.18
2023-02-16T15:01:41.540Z,73.87
2023-02-16T15:04:13.853Z,74.12
2023-02-16T15:06:47.942Z,74.35
2023-02-16T15:09:22.535Z,74.67
2023-02-16T15:12:18.996Z,74.95
2023-02-16T15:14:50.761Z,75.19
2023-02-16T15:17:29.680Z,76.09
2023-02-16T15:20:10.263Z,77.65
2023-02-16T15:22:44.317Z,77.66
2023-02-16T15:25:25.220Z,77.62
2023-02-16T15:27:58.726Z,77.63
2023-02-16T15:30:31.393Z,77.07
2023-02-16T15:33:03.749Z,77.88
2023-02-16T15:35:39.621Z,77.42
2023-02-16T15:38:22.856Z,78.10
2023-02-16T15:40:58.864Z,77.30
2023-02-16T15:43:33.048Z,78.39
2023-02-16T15:46:17.000Z,78.37
2023-02-16T15:48:46.733Z,77.99
2023-02-16T15:51:24.571Z,79.40
2023-02-16T15:53:57.658Z,78.46
2023-02-16T15:56:41.981Z,78.25
2023-02-16T15:59:31.503Z,78.01
2023-02-16T16:02:04.459Z,78.18
2023-02-16T16:04:38.466Z,76.72
2023-02-16T16:07:19.273Z,77.01
2023-02-16T16:09:49.319Z,78.07
2023-02-16T16:12:20.576Z,78.00
2023-02-16T16:14:53.585Z,77.40
2023-02-16T16:17:27.671Z,77.42
2023-02-16T16:19:57.687Z,77.89
2023-02-16T16:22:38.977Z,79.32
2023-02-16T16:25:38.845Z,79.00
2023-02-16T16:28:10.363Z,78.31
2023-02-16T16:30:44.787Z,78.31
2023-02-16T16:33:16.636Z,79.22
2023-02-16T16:35:46.564Z,78.73
2023-02-16T16:38:29.862Z,79.68
2023-02-16T16:41:02.872Z,78.71
2023-02-16T16:43:38.936Z,79.79
2023-02-16T16:46:19.332Z,79.86
2023-02-16T16:48:56.305Z,80.93
2023-02-16T16:51:39.641Z,80.50
2023-02-16T16:54:13.540Z,80.53
2023-02-16T16:56:43.890Z,80.99
2023-02-16T16:59:13.010Z,80.59
2023-02-16T17:01:42.315Z,80.37
2023-02-16T17:04:12.522Z,80.65
2023-02-16T17:06:41.792Z,81.14
2023-02-16T17:09:15.921Z,81.30
2023-02-16T17:11:46.114Z,82.09
2023-02-16T17:14:19.093Z,81.65
2023-02-16T17:16:50.508Z,81.86
2023-02-16T17:19:22.158Z,82.27
2023-02-16T17:21:57.522Z,83.65
2023-02-16T17:24:28.599Z,83.25
2023-02-16T17:26:57.822Z,83.56
2023-02-16T17:29:29.690Z,83.69
2023-02-16T17:31:59.032Z,83.48
2023-02-16T17:34:30.960Z,84.54
2023-02-16T17:37:09.051Z,84.28
2023-02-16T17:39:45.247Z,83.78
2023-02-16T17:42:19.734Z,85.02
2023-02-16T17:44:48.970Z,83.78
2023-02-16T17:47:19.086Z,85.20
2023-02-16T17:49:48.606Z,84.80
2023-02-16T17:52:18.070Z,84.15
2023-02-16T17:54:49.318Z,84.14
2023-02-16T17:57:19.177Z,83.68
2023-02-16T17:59:48.722Z,83.80
2023-02-16T18:02:18.036Z,83.34
2023-02-16T18:04:47.202Z,83.09
2023-02-16T18:07:20.669Z,82.70
2023-02-16T18:09:57.471Z,82.55
2023-02-16T18:12:28.432Z,82.40
2023-02-16T18:14:57.863Z,82.23
2023-02-16T18:17:26.968Z,82.69
2023-02-16T18:19:56.268Z,82.50
2023-02-16T18:22:25.491Z,82.24
2023-02-16T18:24:59.447Z,81.88
2023-02-16T18:27:29.450Z,81.00
2023-02-16T18:29:58.730Z,80.82
2023-02-16T18:32:28.217Z,80.38
2023-02-16T18:34:57.436Z,80.29
2023-02-16T18:37:33.168Z,80.35
2023-02-16T18:40:13.636Z,80.52
2023-02-16T18:42:43.882Z,80.26
2023-02-16T18:45:13.058Z,80.54
2023-02-16T18:50:24.704Z,79.62
2023-02-16T18:52:54.369Z,79.31
2023-02-16T18:55:27.762Z,78.77
2023-02-16T18:57:58.224Z,79.00
2023-02-16T19:00:32.952Z,79.72
2023-02-16T19:03:05.281Z,79.90
2023-02-16T19:05:35.054Z,80.80
2023-02-16T19:08:18.937Z,80.69
2023-02-16T19:10:50.508Z,80.75
2023-02-16T19:13:19.880Z,80.76
2023-02-16T19:15:49.022Z,81.51
2023-02-16T19:18:19.811Z,81.99
2023-02-16T19:20:49.017Z,82.66
2023-02-16T19:23:23.532Z,82.78
2023-02-16T19:25:54.677Z,83.17
2023-02-16T19:28:23.921Z,83.89
2023-02-16T19:30:53.811Z,84.89
2023-02-16T19:33:23.074Z,83.81
2023-02-16T19:35:53.272Z,83.89
2023-02-16T19:38:22.365Z,84.29
2023-02-16T19:40:54.630Z,84.16
2023-02-16T19:43:24.742Z,84.20
2023-02-16T19:45:54.881Z,84.06
2023-02-16T19:48:29.249Z,84.01
2023-02-16T19:50:59.131Z,83.83
2023-02-16T19:53:28.403Z,84.27
2023-02-16T19:56:00.491Z,84.45
2023-02-16T19:58:30.137Z,84.77
2023-02-16T20:00:59.286Z,84.63
2023-02-16T20:03:33.965Z,84.25
2023-02-16T20:06:12.982Z,84.13
2023-02-16T20:08:42.287Z,83.84
2023-02-16T20:11:13.909Z,83.44
2023-02-16T20:16:25.846Z,83.58
2023-02-16T20:19:00.582Z,83.10
2023-02-16T20:21:31.426Z,83.11
2023-02-16T20:24:02.608Z,82.57
2023-02-16T20:26:35.568Z,82.71
2023-02-16T20:29:17.313Z,82.27
2023-02-16T20:31:56.837Z,82.00
2023-02-16T20:34:33.646Z,82.19
2023-02-16T20:37:02.975Z,82.02
2023-02-16T20:39:32.277Z,81.85
2023-02-16T20:44:38.612Z,82.05
2023-02-16T20:47:09.785Z,81.96
2023-02-16T20:49:39.804Z,81.83
2023-02-16T20:52:09.126Z,81.78
2023-02-16T20:54:39.220Z,81.51
2023-02-16T20:57:26.366Z,80.88
2023-02-16T20:59:56.599Z,80.91
2023-02-16T21:02:25.964Z,80.51
2023-02-16T21:04:55.239Z,80.30
2023-02-16T21:07:24.419Z,80.20
2023-02-16T21:09:54.535Z,80.08
2023-02-16T21:12:25.575Z,79.78
2023-02-16T21:14:54.898Z,79.80
2023-02-16T21:17:24.472Z,79.77
2023-02-16T21:19:53.590Z,79.65
2023-02-16T21:22:24.576Z,79.26
2023-02-16T21:24:55.334Z,79.83
2023-02-16T21:27:27.032Z,79.72
2023-02-16T21:29:57.570Z,79.86
2023-02-16T21:32:26.864Z,79.82
2023-02-16T21:34:56.287Z,80.39
2023-02-16T21:37:40.813Z,80.80
2023-02-16T21:40:31.459Z,81.66
2023-02-16T21:43:02.624Z,80.99
2023-02-16T21:45:31.902Z,81.17
2023-02-16T21:48:14.588Z,80.74
2023-02-16T21:50:43.781Z,80.65
2023-02-16T21:53:13.007Z,80.48
2023-02-16T21:55:55.202Z,80.06
2023-02-16T21:58:29.785Z,79.42
2023-02-16T22:01:00.340Z,79.05
2023-02-16T22:03:30.025Z,78.48
2023-02-16T22:06:03.898Z,78.66
2023-02-16T22:08:37.532Z,79.01
2023-02-16T22:11:08.714Z,78.79
2023-02-16T22:13:40.444Z,78.44
2023-02-16T22:16:15.535Z,78.52
2023-02-16T22:18:45.728Z,78.31
2023-02-16T22:21:15.329Z,78.32
2023-02-16T22:23:50.828Z,78.31
2023-02-16T22:26:23.695Z,78.25
2023-02-16T22:29:00.922Z,78.40
2023-02-16T22:31:30.362Z,78.31
2023-02-16T22:34:06.336Z,78.06
2023-02-16T22:36:37.406Z,78.21
2023-02-16T22:39:06.816Z,77.67
2023-02-16T22:41:36.684Z,77.91
2023-02-16T22:44:08.203Z,77.65
2023-02-16T22:46:37.462Z,77.13
2023-02-16T22:49:06.534Z,77.30
2023-02-16T22:51:37.114Z,77.47
2023-02-16T22:54:07.426Z,77.23
2023-02-16T22:56:37.358Z,77.21
2023-02-16T22:59:09.478Z,77.44
2023-02-16T23:01:39.886Z,77.00
2023-02-16T23:04:09.148Z,77.09
2023-02-16T23:06:39.355Z,77.17
2023-02-16T23:09:15.886Z,76.92
2023-02-16T23:11:46.506Z,76.84
2023-02-16T23:14:17.999Z,76.36
2023-02-16T23:16:48.835Z,76.52
2023-02-16T23:19:25.491Z,76.61
2023-02-16T23:21:55.104Z,76.72
2023-02-16T23:24:25.428Z,77.53
2023-02-16T23:27:01.007Z,77.57
2023-02-16T23:29:32.188Z,77.95
2023-02-16T23:32:08.286Z,78.19
2023-02-16T23:34:37.414Z,77.74
2023-02-16T23:37:06.731Z,77.92
2023-02-16T23:39:35.824Z,77.60
2023-02-16T23:42:09.994Z,77.97
2023-02-16T23:44:46.882Z,77.65
2023-02-16T23:47:16.011Z,77.83
2023-02-16T23:49:45.084Z,77.81
2023-02-16T23:52:19.458Z,77.62
2023-02-16T23:54:49.611Z,77.28
2023-02-16T23:57:28.979Z,77.82
